createdAt,value
2018-04-23T00:01:05.771Z,58.10
2018-04-23T00:05:09.216Z,59.40
2018-04-23T00:09:12.671Z,59.20
2018-04-23T00:13:15.369Z,59.30
2018-04-23T00:17:17.979Z,58.70
2018-04-23T00:21:20.624Z,58.90
2018-04-23T00:25:23.256Z,58.20
2018-04-23T00:29:25.900Z,58.60
2018-04-23T00:33:28.544Z,58.20
2018-04-23T00:37:31.975Z,59.20
2018-04-23T00:41:34.621Z,59.10
2018-04-23T00:45:37.268Z,59.60
2018-04-23T00:49:40.021Z,58.20
2018-04-23T00:53:42.700Z,58.90
2018-04-23T00:57:46.082Z,59.50
2018-04-23T01:01:48.829Z,59.40
2018-04-23T01:05:51.523Z,59.60
2018-04-23T01:09:54.157Z,59.50
2018-04-23T01:13:56.793Z,58.50
2018-04-23T01:17:59.465Z,58.60
2018-04-23T01:22:02.112Z,58.50
2018-04-23T01:26:04.756Z,58.20
2018-04-23T01:30:07.401Z,58.60
2018-04-23T01:34:10.052Z,58.20
2018-04-23T01:38:12.668Z,59.10
2018-04-23T01:42:15.409Z,60.00
2018-04-23T01:46:18.049Z,59.20
2018-04-23T01:50:20.691Z,59.60
2018-04-23T01:54:23.336Z,62.30
2018-04-23T01:58:25.972Z,60.10
2018-04-23T02:02:28.611Z,61.40
2018-04-23T02:06:31.304Z,60.20
2018-04-23T02:10:33.953Z,60.00
2018-04-23T02:14:36.604Z,60.70
2018-04-23T02:18:39.979Z,61.90
2018-04-23T02:22:42.633Z,61.80
2018-04-23T02:26:45.289Z,60.80
2018-04-23T02:30:47.941Z,64.00
2018-04-23T02:34:50.585Z,60.80
2018-04-23T02:38:53.196Z,61.90
2018-04-23T02:42:55.859Z,62.30
2018-04-23T02:46:58.563Z,62.30
2018-04-23T02:51:01.216Z,61.30
2018-04-23T02:55:04.630Z,62.00
2018-04-23T02:59:07.239Z,61.90
2018-04-23T03:03:09.885Z,60.30
2018-04-23T03:07:13.365Z,61.90
2018-04-23T03:11:16.007Z,61.70
2018-04-23T03:15:18.682Z,61.40
2018-04-23T03:19:22.053Z,62.90
2018-04-23T03:23:24.704Z,62.80
2018-04-23T03:27:27.347Z,60.40
2018-04-23T03:31:30.765Z,60.00
2018-04-23T03:35:34.132Z,60.10
2018-04-23T03:39:36.785Z,60.00
2018-04-23T03:43:39.432Z,59.70
2018-04-23T03:47:42.071Z,61.10
2018-04-23T03:51:44.709Z,61.60
2018-04-23T03:55:47.315Z,60.70
2018-04-23T03:59:50.729Z,61.00
2018-04-23T04:03:53.390Z,61.00
2018-04-23T04:07:56.040Z,63.70
2018-04-23T04:12:04.712Z,63.10
2018-04-23T04:16:19.323Z,61.20
2018-04-23T04:20:21.972Z,62.10
2018-04-23T04:24:25.387Z,62.90
2018-04-23T04:28:28.063Z,62.00
2018-04-23T04:32:31.580Z,62.50
2018-04-23T04:36:34.952Z,63.00
2018-04-23T04:40:37.604Z,62.90
2018-04-23T04:44:40.319Z,64.00
2018-04-23T04:48:42.955Z,63.10
2018-04-23T04:52:46.372Z,65.10
2018-04-23T04:56:49.735Z,65.00
2018-04-23T05:00:52.398Z,64.90
2018-04-23T05:04:55.040Z,65.60
2018-04-23T05:08:58.459Z,65.20
2018-04-23T05:13:01.075Z,65.20
2018-04-23T05:17:03.754Z,65.60
2018-04-23T05:21:06.395Z,65.90
2018-04-23T05:25:09.031Z,66.00
2018-04-23T05:29:11.680Z,67.00
2018-04-23T05:33:14.279Z,66.00
2018-04-23T05:37:17.745Z,65.80
2018-04-23T05:41:20.393Z,65.70
2018-04-23T05:45:23.096Z,67.30
2018-04-23T05:49:25.800Z,65.80
2018-04-23T05:53:28.404Z,66.10
2018-04-23T05:57:31.856Z,66.10
2018-04-23T06:01:35.272Z,66.30
2018-04-23T06:05:37.919Z,66.20
2018-04-23T06:09:40.576Z,66.20
2018-04-23T06:13:43.284Z,66.10
2018-04-23T06:17:46.741Z,65.30
2018-04-23T06:21:49.387Z,65.30
2018-04-23T06:25:52.041Z,65.50
2018-04-23T06:29:54.647Z,65.00
2018-04-23T06:33:57.621Z,66.00
2018-04-23T06:38:00.281Z,65.40
2018-04-23T06:42:03.686Z,65.90
2018-04-23T06:46:07.151Z,65.20
2018-04-23T06:50:09.735Z,65.10
2018-04-23T06:54:12.423Z,65.20
2018-04-23T06:58:15.075Z,65.00
2018-04-23T07:02:17.717Z,64.90
2018-04-23T07:06:20.417Z,65.20
2018-04-23T07:10:23.048Z,64.40
2018-04-23T07:14:25.689Z,63.90
2018-04-23T07:18:28.335Z,64.20
2018-04-23T07:22:30.982Z,64.00
2018-04-23T07:26:34.451Z,64.30
2018-04-23T07:30:37.047Z,63.70
2018-04-23T07:34:39.698Z,63.70
2018-04-23T07:38:42.354Z,63.20
2018-04-23T07:42:45.759Z,63.30
2018-04-23T07:50:40.341Z,62.60
2018-04-23T07:54:42.984Z,61.70
2018-04-23T07:58:46.397Z,61.90
2018-04-23T08:02:49.804Z,62.30
2018-04-23T08:06:52.424Z,62.30
2018-04-23T08:10:55.136Z,62.60
2018-04-23T08:14:57.781Z,62.40
2018-04-23T08:19:00.418Z,62.50
2018-04-23T08:23:03.056Z,61.40
2018-04-23T08:27:05.684Z,60.70
2018-04-23T08:31:08.316Z,59.00
2018-04-23T08:35:11.728Z,56.90
2018-04-23T08:39:15.133Z,57.40
2018-04-23T08:43:18.536Z,57.30
2018-04-23T08:47:21.943Z,57.50
2018-04-23T08:51:25.362Z,57.20
2018-04-23T08:55:27.997Z,57.20
2018-04-23T08:59:30.637Z,56.70
2018-04-23T09:03:33.237Z,57.80
2018-04-23T09:07:35.883Z,57.30
2018-04-23T09:11:38.528Z,56.80
2018-04-23T09:15:41.165Z,57.70
2018-04-23T09:19:44.619Z,58.30
2018-04-23T09:23:47.217Z,58.30
2018-04-23T09:31:54.239Z,57.20
2018-04-23T09:35:56.852Z,57.30
2018-04-23T09:39:59.488Z,57.30
2018-04-23T09:44:02.099Z,57.60
2018-04-23T09:48:04.741Z,57.20
2018-04-23T09:52:08.148Z,56.20
2018-04-23T09:56:11.552Z,56.70
2018-04-23T10:00:14.960Z,56.10
2018-04-23T10:04:21.298Z,56.10
2018-04-23T10:08:23.932Z,56.00
2018-04-23T10:12:26.572Z,54.80
2018-04-23T10:16:29.264Z,54.80
2018-04-23T10:20:31.972Z,55.30
2018-04-23T10:24:34.612Z,55.50
2018-04-23T10:28:37.246Z,54.50
2018-04-23T10:32:39.880Z,55.40
2018-04-23T10:36:42.516Z,55.80
2018-04-23T10:40:45.164Z,55.30
2018-04-23T10:44:47.768Z,54.30
2018-04-23T10:48:50.406Z,54.30
2018-04-23T10:52:53.044Z,55.00
2018-04-23T10:56:55.683Z,54.90
2018-04-23T11:00:58.320Z,54.00
2018-04-23T11:05:00.918Z,54.30
2018-04-23T11:09:03.659Z,53.20
2018-04-23T11:13:06.352Z,53.60
2018-04-23T11:17:08.987Z,53.40
2018-04-23T11:21:11.616Z,52.90
2018-04-23T11:25:15.029Z,52.40
2018-04-23T11:29:17.695Z,52.40
2018-04-23T11:33:21.103Z,51.30
2018-04-23T11:37:24.503Z,50.20
2018-04-23T11:41:27.908Z,51.70
2018-04-23T11:45:30.565Z,51.00
2018-04-23T11:49:33.207Z,51.30
2018-04-23T11:53:35.923Z,51.50
2018-04-23T11:57:38.553Z,51.90
2018-04-23T12:01:41.187Z,52.20
2018-04-23T12:05:43.780Z,50.90
2018-04-23T12:09:46.425Z,51.00
2018-04-23T12:13:49.871Z,50.70
2018-04-23T12:17:52.520Z,50.60
2018-04-23T12:21:55.242Z,50.60
2018-04-23T12:25:57.844Z,49.60
2018-04-23T12:30:00.484Z,50.00
2018-04-23T12:34:03.159Z,50.80
2018-04-23T12:38:05.849Z,50.50
2018-04-23T12:42:08.484Z,49.30
2018-04-23T12:46:11.132Z,50.00
2018-04-23T12:50:13.752Z,49.90
2018-04-23T12:54:16.427Z,49.80
2018-04-23T12:58:19.824Z,48.60
2018-04-23T13:02:22.465Z,48.60
2018-04-23T13:06:25.061Z,49.00
2018-04-23T13:10:27.732Z,47.60
2018-04-23T13:14:30.391Z,48.10
2018-04-23T13:18:33.796Z,49.30
2018-04-23T13:22:37.260Z,49.50
2018-04-23T13:26:39.862Z,49.50
2018-04-23T13:30:42.551Z,47.80
2018-04-23T13:34:45.183Z,47.10
2018-04-23T13:38:47.816Z,46.30
2018-04-23T13:42:50.453Z,47.00
2018-04-23T13:46:53.051Z,47.90
2018-04-23T13:50:55.736Z,46.70
2018-04-23T13:54:58.373Z,47.00
2018-04-23T13:59:01.015Z,46.70
2018-04-23T14:03:03.647Z,44.40
2018-04-23T14:07:06.240Z,45.40
2018-04-23T14:11:08.875Z,46.80
2018-04-23T14:15:11.508Z,47.30
2018-04-23T14:19:14.157Z,47.20
2018-04-23T14:23:16.800Z,46.70
2018-04-23T14:27:19.404Z,46.90
2018-04-23T14:31:22.807Z,46.70
2018-04-23T14:35:26.212Z,46.00
2018-04-23T14:39:29.611Z,48.10
2018-04-23T14:43:32.251Z,47.50
2018-04-23T14:47:34.844Z,47.20
2018-04-23T14:51:37.549Z,47.80
2018-04-23T14:55:40.198Z,45.70
2018-04-23T14:59:42.840Z,46.10
2018-04-23T15:03:45.479Z,46.40
2018-04-23T15:07:48.116Z,46.80
2018-04-23T15:11:50.812Z,46.90
2018-04-23T15:15:53.450Z,47.50
2018-04-23T15:19:56.090Z,46.80
2018-04-23T15:23:58.738Z,46.30
2018-04-23T15:28:01.341Z,45.70
2018-04-23T15:32:04.039Z,46.30
2018-04-23T15:36:06.678Z,47.00
2018-04-23T15:40:09.312Z,47.00
2018-04-23T15:44:12.013Z,47.10
2018-04-23T15:48:14.610Z,47.30
2018-04-23T15:52:17.249Z,47.80
2018-04-23T15:56:19.890Z,48.10
2018-04-23T16:00:23.295Z,47.10
2018-04-23T16:04:26.005Z,47.10
2018-04-23T16:08:29.369Z,47.10
2018-04-23T16:12:32.066Z,47.10
2018-04-23T16:16:34.699Z,47.40
2018-04-23T16:20:37.339Z,47.80
2018-04-23T16:24:40.119Z,48.20
2018-04-23T16:28:42.761Z,48.40
2018-04-23T16:32:45.399Z,48.20
2018-04-23T16:36:48.046Z,48.20
2018-04-23T16:40:50.691Z,48.00
2018-04-23T16:44:53.485Z,47.90
2018-04-23T16:48:56.088Z,47.90
2018-04-23T16:52:59.487Z,47.90
2018-04-23T16:57:02.946Z,47.80
2018-04-23T17:01:05.578Z,47.80
2018-04-23T17:05:08.217Z,48.10
2018-04-23T17:09:10.868Z,48.60
2018-04-23T17:13:14.285Z,48.80
2018-04-23T17:17:16.925Z,48.80
2018-04-23T17:21:19.570Z,49.00
2018-04-23T17:25:22.212Z,49.10
2018-04-23T17:29:24.841Z,49.30
2018-04-23T17:33:27.500Z,49.20
2018-04-23T17:37:30.147Z,48.80
2018-04-23T17:41:32.817Z,49.60
2018-04-23T17:45:35.456Z,49.10
2018-04-23T17:49:38.055Z,49.30
2018-04-23T17:53:40.730Z,49.40
2018-04-23T17:57:44.175Z,49.60
2018-04-23T18:01:47.589Z,49.60
2018-04-23T18:05:51.172Z,49.50
2018-04-23T18:09:53.771Z,49.70
2018-04-23T18:13:57.186Z,49.90
2018-04-23T18:17:59.875Z,49.90
2018-04-23T18:22:03.281Z,50.00
2018-04-23T18:26:06.684Z,50.20
2018-04-23T18:30:10.052Z,50.30
2018-04-23T18:34:12.693Z,50.20
2018-04-23T18:38:15.335Z,50.30
2018-04-23T18:42:18.783Z,50.50
2018-04-23T18:46:21.417Z,50.40
2018-04-23T18:50:24.120Z,50.60
2018-04-23T18:54:26.736Z,50.80
2018-04-23T18:58:29.674Z,50.90
2018-04-23T19:02:32.328Z,50.90
2018-04-23T19:06:35.744Z,50.90
2018-04-23T19:10:38.402Z,50.80
2018-04-23T19:14:41.771Z,51.10
2018-04-23T19:18:44.440Z,51.10
2018-04-23T19:22:47.093Z,50.90
2018-04-23T19:26:50.512Z,51.10
2018-04-23T19:30:53.169Z,51.00
2018-04-23T19:34:55.806Z,51.20
2018-04-23T19:38:58.440Z,51.30
2018-04-23T19:43:01.084Z,51.60
2018-04-23T19:47:03.732Z,51.40
2018-04-23T19:51:07.099Z,51.70
2018-04-23T19:55:09.804Z,51.40
2018-04-23T19:59:12.421Z,51.60
2018-04-23T20:03:15.844Z,51.60
2018-04-23T20:07:18.488Z,51.60
2018-04-23T20:11:21.947Z,51.80
2018-04-23T20:15:25.384Z,52.40
2018-04-23T20:19:28.074Z,52.30
2018-04-23T20:23:30.711Z,51.90
2018-04-23T20:27:34.123Z,52.30
2018-04-23T20:31:37.485Z,52.60
2018-04-23T20:35:40.141Z,52.60
2018-04-23T20:39:42.789Z,52.60
2018-04-23T20:43:45.427Z,52.50
2018-04-23T20:47:48.074Z,52.90
2018-04-23T20:51:51.440Z,52.60
2018-04-23T20:55:54.088Z,52.50
2018-04-23T20:59:56.736Z,52.80
2018-04-23T21:03:59.431Z,52.40
2018-04-23T21:08:02.027Z,52.50
2018-04-23T21:12:05.437Z,52.40
2018-04-23T21:16:08.843Z,52.50
2018-04-23T21:20:12.265Z,52.40
2018-04-23T21:24:14.904Z,52.30
2018-04-23T21:28:17.558Z,52.30
2018-04-23T21:32:20.202Z,52.40
2018-04-23T21:36:22.849Z,52.40
2018-04-23T21:40:25.500Z,52.70
2018-04-23T21:44:28.908Z,52.40
2018-04-23T21:48:31.512Z,52.50
2018-04-23T21:52:34.148Z,52.50
2018-04-23T21:56:36.792Z,52.50
2018-04-23T22:00:39.437Z,52.50
2018-04-23T22:04:42.901Z,52.70
2018-04-23T22:08:45.510Z,52.60
2018-04-23T22:12:48.160Z,52.60
2018-04-23T22:16:50.800Z,52.60
2018-04-23T22:20:53.438Z,52.50
2018-04-23T22:24:56.153Z,52.60
2018-04-23T22:28:58.766Z,52.60
2018-04-23T22:33:01.403Z,52.70
2018-04-23T22:37:04.042Z,52.70
2018-04-23T22:41:06.689Z,52.80
2018-04-23T22:45:09.341Z,52.80
2018-04-23T22:49:12.759Z,52.80
2018-04-23T22:53:15.396Z,53.40
2018-04-23T22:57:18.038Z,52.80
2018-04-23T23:01:20.676Z,52.80
2018-04-23T23:05:23.326Z,52.90
2018-04-23T23:09:25.976Z,52.80
2018-04-23T23:13:28.625Z,52.80
2018-04-23T23:17:31.264Z,52.90
2018-04-23T23:21:33.995Z,53.10
2018-04-23T23:25:36.632Z,53.10
2018-04-23T23:29:40.009Z,53.20
2018-04-23T23:33:43.464Z,53.40
2018-04-23T23:37:46.118Z,53.40
2018-04-23T23:41:48.773Z,53.40
2018-04-23T23:45:51.407Z,53.40
2018-04-23T23:49:54.004Z,54.00
2018-04-23T23:53:57.411Z,53.50
2018-04-23T23:58:00.873Z,53.70
